Time;durP1;ratioP1;P1;durP2;ratioP2;P2;SDS_P1;SDS_P2;PMS_P1;PMS_P2;Temp;Humidity;BMP_temperature;BMP_pressure;BME280_temperature;BME280_humidity;BME280_pressure;Samples;Min_cycle;Max_cycle;Signal;HPM_P1;HPM_P2
2023/07/15 00:02:20;;;;;;;;;;;;;;;25.64;nan;101366.19;5055065;28;20372;-85
2023/07/15 00:04:45;;;;;;;;;;;;;;;25.64;nan;101368.94;5055215;28;19931;-85
2023/07/15 00:07:10;;;;;;;;;;;;;;;25.61;nan;101376.69;5056521;28;19920;-84
2023/07/15 00:09:36;;;;;;;;;;;;;;;25.61;nan;101382.19;5055934;28;20174;-84
2023/07/15 00:12:01;;;;;;;;;;;;;;;25.62;nan;101372.03;5057595;28;19936;-84
2023/07/15 00:14:28;;;;;;;;;;;;;;;25.61;nan;101371.22;5052461;28;19925;-84
2023/07/15 00:16:54;;;;;;;;;;;;;;;25.61;nan;101370.41;5055135;28;19920;-84
2023/07/15 00:19:20;;;;;;;;;;;;;;;25.58;nan;101371.88;5058091;28;20002;-84
2023/07/15 00:21:45;;;;;;;;;;;;;;;25.57;nan;101358.50;5056095;28;19932;-84
2023/07/15 00:24:11;;;;;;;;;;;;;;;25.57;nan;101361.25;5056774;28;19924;-84
2023/07/15 00:26:37;;;;;;;;;;;;;;;25.54;nan;101359.97;5057083;28;20395;-84
2023/07/15 00:29:03;;;;;;;;;;;;;;;25.55;nan;101358.84;5057363;28;20011;-84
2023/07/15 00:31:30;;;;;;;;;;;;;;;25.57;nan;101358.50;5054773;28;19927;-85
2023/07/15 00:33:55;;;;;;;;;;;;;;;25.56;nan;101351.41;5057879;28;19921;-84
2023/07/15 00:36:21;;;;;;;;;;;;;;;25.57;nan;101353.03;5057120;28;19966;-84
2023/07/15 00:38:46;;;;;;;;;;;;;;;25.57;nan;101358.50;5058117;28;19923;-84
2023/07/15 00:41:19;;;;;;;;;;;;;;;25.57;nan;101353.03;5063201;28;20371;-84
2023/07/15 00:43:54;;;;;;;;;;;;;;;25.56;nan;101349.47;5056087;28;19939;-84
2023/07/15 00:46:27;;;;;;;;;;;;;;;25.56;nan;101338.50;5055265;28;19920;-83
2023/07/15 00:49:11;;;;;;;;;;;;;;;25.57;nan;101339.28;5056564;28;19975;-83
2023/07/15 00:51:38;;;;;;;;;;;;;;;25.56;nan;101341.25;5057596;28;20029;-83
2023/07/15 00:54:04;;;;;;;;;;;;;;;25.55;nan;101345.13;5055142;28;19916;-84
2023/07/15 00:56:30;;;;;;;;;;;;;;;25.54;nan;101339.97;5055227;28;19970;-83
2023/07/15 00:58:56;;;;;;;;;;;;;;;25.55;nan;101344.31;5056851;28;19932;-83
2023/07/15 01:01:22;;;;;;;;;;;;;;;25.53;nan;101339.16;5056402;28;20081;-83
2023/07/15 01:03:47;;;;;;;;;;;;;;;25.56;nan;101326.72;5059271;28;19917;-84
2023/07/15 01:06:13;;;;;;;;;;;;;;;25.58;nan;101327.97;5053624;28;20310;-83
2023/07/15 01:08:39;;;;;;;;;;;;;;;25.54;nan;101321.56;5058422;28;20420;-83
2023/07/15 01:11:06;;;;;;;;;;;;;;;25.54;nan;101318.03;5055708;28;20040;-83
2023/07/15 01:13:31;;;;;;;;;;;;;;;25.57;nan;101314.59;5051372;28;19924;-83
2023/07/15 01:15:57;;;;;;;;;;;;;;;25.57;nan;101309.91;5052977;28;20300;-84
2023/07/15 01:18:22;;;;;;;;;;;;;;;25.58;nan;101307.97;5053440;28;19920;-84
2023/07/15 01:20:50;;;;;;;;;;;;;;;25.60;nan;101305.69;5051765;28;20419;-84
2023/07/15 01:23:15;;;;;;;;;;;;;;;25.58;nan;101308.78;5052013;28;19924;-84
2023/07/15 01:25:41;;;;;;;;;;;;;;;25.58;nan;101308.78;5055241;28;19931;-83
2023/07/15 01:28:06;;;;;;;;;;;;;;;25.58;nan;101308.78;5051498;28;19923;-83
2023/07/15 01:30:32;;;;;;;;;;;;;;;25.58;nan;101306.03;5056820;28;20009;-84
2023/07/15 01:32:57;;;;;;;;;;;;;;;25.59;nan;101302.16;5049426;28;19921;-83
2023/07/15 01:35:22;;;;;;;;;;;;;;;25.63;nan;101301.47;5051066;28;20058;-84
2023/07/15 01:37:48;;;;;;;;;;;;;;;25.63;nan;101291.31;5056130;28;19920;-84
2023/07/15 01:40:13;;;;;;;;;;;;;;;25.67;nan;101291.44;5053495;28;20391;-84
2023/07/15 01:42:40;;;;;;;;;;;;;;;25.68;nan;101288.41;5057421;28;20011;-83
2023/07/15 01:45:05;;;;;;;;;;;;;;;25.68;nan;101287.59;5053676;28;19951;-83
2023/07/15 01:47:31;;;;;;;;;;;;;;;25.70;nan;101286.13;5053428;28;20513;-84
2023/07/15 01:49:56;;;;;;;;;;;;;;;25.70;nan;101283.38;5054307;28;20029;-84
2023/07/15 01:52:21;;;;;;;;;;;;;;;25.74;nan;101276.06;5054790;28;19924;-84
2023/07/15 01:54:46;;;;;;;;;;;;;;;25.75;nan;101263.16;5053500;28;20117;-83
2023/07/15 01:57:12;;;;;;;;;;;;;;;25.74;nan;101265.09;5058542;28;19920;-84
2023/07/15 01:59:38;;;;;;;;;;;;;;;25.76;nan;101267.50;5051939;28;19917;-84
2023/07/15 02:02:03;;;;;;;;;;;;;;;25.79;nan;101266.81;5054776;28;19923;-83
2023/07/15 02:04:28;;;;;;;;;;;;;;;25.81;nan;101265.31;5056156;28;20461;-83
2023/07/15 02:06:54;;;;;;;;;;;;;;;25.83;nan;101262.25;5054890;28;19924;-84
2023/07/15 02:09:19;;;;;;;;;;;;;;;25.85;nan;101259.94;5057312;28;19956;-84
2023/07/15 02:11:44;;;;;;;;;;;;;;;25.87;nan;101263.19;5052960;28;19976;-84
2023/07/15 02:14:10;;;;;;;;;;;;;;;25.87;nan;101263.19;5051882;28;19920;-84
2023/07/15 02:16:36;;;;;;;;;;;;;;;25.87;nan;101260.44;5056075;28;19925;-84
2023/07/15 02:19:01;;;;;;;;;;;;;;;25.87;nan;101257.69;5054716;28;19936;-84
2023/07/15 02:21:27;;;;;;;;;;;;;;;25.86;nan;101256.09;5051866;28;19920;-84
2023/07/15 02:23:52;;;;;;;;;;;;;;;25.85;nan;101258.03;5054966;28;19924;-84
2023/07/15 02:26:18;;;;;;;;;;;;;;;25.85;nan;101257.22;5060243;28;19917;-84
2023/07/15 02:28:43;;;;;;;;;;;;;;;25.83;nan;101259.50;5056496;28;20334;-83
2023/07/15 02:31:09;;;;;;;;;;;;;;;25.85;nan;101259.94;5058660;28;20478;-84
2023/07/15 02:33:34;;;;;;;;;;;;;;;25.85;nan;101266.28;5055759;28;19920;-84
2023/07/15 02:35:59;;;;;;;;;;;;;;;25.90;nan;101262.50;5053142;28;20487;-84
2023/07/15 02:38:25;;;;;;;;;;;;;;;25.91;nan;101250.38;5056270;28;19920;-84
2023/07/15 02:40:50;;;;;;;;;;;;;;;25.92;nan;101251.19;5058365;28;19923;-84
2023/07/15 02:43:15;;;;;;;;;;;;;;;25.92;nan;101243.75;5058288;28;19916;-84
2023/07/15 02:45:41;;;;;;;;;;;;;;;25.92;nan;101238.25;5055799;28;20304;-84
2023/07/15 02:48:06;;;;;;;;;;;;;;;25.88;nan;101237.34;5057465;28;19924;-84
2023/07/15 02:50:32;;;;;;;;;;;;;;;25.86;nan;101236.88;5055468;28;20285;-84
2023/07/15 02:52:57;;;;;;;;;;;;;;;25.84;nan;101236.41;5059297;28;19920;-84
2023/07/15 02:55:22;;;;;;;;;;;;;;;25.84;nan;101242.69;5055560;28;20015;-84
2023/07/15 02:57:48;;;;;;;;;;;;;;;25.84;nan;101237.19;5057212;28;20418;-84
2023/07/15 03:00:16;;;;;;;;;;;;;;;25.85;nan;101235.25;5056827;28;19920;-85
2023/07/15 03:02:47;;;;;;;;;;;;;;;25.83;nan;101229.31;5057834;28;19917;-84
2023/07/15 03:05:12;;;;;;;;;;;;;;;25.83;nan;101223.81;5054074;28;20281;-84
2023/07/15 03:07:39;;;;;;;;;;;;;;;25.80;nan;101216.25;5056682;28;19916;-84
2023/07/15 03:10:04;;;;;;;;;;;;;;;25.80;nan;101216.25;5052524;28;19921;-84
2023/07/15 03:12:30;;;;;;;;;;;;;;;25.79;nan;101222.91;5055079;28;20277;-84
2023/07/15 03:14:55;;;;;;;;;;;;;;;25.81;nan;101228.84;5053860;28;19924;-84
2023/07/15 03:17:20;;;;;;;;;;;;;;;25.80;nan;101229.97;5049748;28;19997;-84
2023/07/15 03:19:46;;;;;;;;;;;;;;;25.80;nan;101229.97;5053448;28;19920;-84
2023/07/15 03:22:11;;;;;;;;;;;;;;;25.78;nan;101219.34;5054249;28;19927;-84
2023/07/15 03:24:37;;;;;;;;;;;;;;;25.77;nan;101214.19;5051679;28;20433;-84
2023/07/15 03:27:03;;;;;;;;;;;;;;;25.74;nan;101212.13;5050167;28;19942;-85
2023/07/15 03:29:28;;;;;;;;;;;;;;;25.75;nan;101219.22;5053980;28;19964;-85
2023/07/15 03:31:54;;;;;;;;;;;;;;;25.71;nan;101223.81;5051826;28;19931;-85
2023/07/15 03:34:19;;;;;;;;;;;;;;;25.69;nan;101212.38;5055176;28;20309;-85
2023/07/15 03:36:44;;;;;;;;;;;;;;;25.70;nan;101212.03;5054578;28;20005;-85
2023/07/15 03:39:10;;;;;;;;;;;;;;;25.70;nan;101213.97;5050964;28;19935;-85
2023/07/15 03:41:36;;;;;;;;;;;;;;;25.67;nan;101222.81;5055222;28;20463;-85
2023/07/15 03:44:01;;;;;;;;;;;;;;;25.65;nan;101216.88;5052378;28;20146;-85
2023/07/15 03:46:27;;;;;;;;;;;;;;;25.65;nan;101216.88;5056680;28;20463;-85
2023/07/15 03:48:52;;;;;;;;;;;;;;;25.65;nan;101222.34;5056334;28;19928;-85
2023/07/15 03:51:18;;;;;;;;;;;;;;;25.61;nan;101220.28;5053317;28;19927;-86
2023/07/15 03:53:43;;;;;;;;;;;;;;;25.57;nan;101215.81;5056630;28;21679;-85
2023/07/15 03:56:08;;;;;;;;;;;;;;;25.55;nan;101209.88;5055257;28;19943;-85
2023/07/15 03:58:34;;;;;;;;;;;;;;;25.54;nan;101205.53;5055384;28;20299;-85
2023/07/15 04:00:59;;;;;;;;;;;;;;;25.49;nan;101214.75;5053534;28;20011;-84
2023/07/15 04:03:24;;;;;;;;;;;;;;;25.48;nan;101218.63;5057055;28;19974;-85
2023/07/15 04:05:50;;;;;;;;;;;;;;;25.47;nan;101214.28;5057459;28;20412;-85
2023/07/15 04:08:15;;;;;;;;;;;;;;;25.50;nan;101208.16;5055432;28;20011;-84
2023/07/15 04:10:40;;;;;;;;;;;;;;;25.54;nan;101211.03;5057484;28;19931;-85
2023/07/15 04:13:06;;;;;;;;;;;;;;;25.58;nan;101204.50;5057534;28;19928;-84
2023/07/15 04:15:31;;;;;;;;;;;;;;;25.62;nan;101199.16;5057418;28;19924;-84
2023/07/15 04:17:56;;;;;;;;;;;;;;;25.61;nan;101192.84;5055066;28;19924;-84
2023/07/15 04:20:22;;;;;;;;;;;;;;;25.66;nan;101193.78;5056414;28;20303;-85
2023/07/15 04:22:47;;;;;;;;;;;;;;;25.73;nan;101197.63;5055413;28;19927;-85
2023/07/15 04:25:12;;;;;;;;;;;;;;;25.78;nan;101189.16;5052297;28;19920;-85
2023/07/15 04:27:38;;;;;;;;;;;;;;;25.86;nan;101187.47;5055336;28;19934;-85
2023/07/15 04:30:04;;;;;;;;;;;;;;;25.95;nan;101182.66;5049688;28;19920;-86
2023/07/15 04:32:29;;;;;;;;;;;;;;;26.03;nan;101186.44;5052766;28;20395;-85
2023/07/15 04:34:55;;;;;;;;;;;;;;;26.06;nan;101181.09;5052470;28;20464;-85
2023/07/15 04:37:20;;;;;;;;;;;;;;;26.08;nan;101181.53;5054376;28;19931;-86
2023/07/15 04:39:45;;;;;;;;;;;;;;;26.14;nan;101180.16;5049908;28;19928;-84
2023/07/15 04:42:10;;;;;;;;;;;;;;;26.18;nan;101181.06;5053496;28;19931;-85
2023/07/15 04:44:36;;;;;;;;;;;;;;;26.26;nan;101175.81;5056235;28;20095;-84
2023/07/15 04:47:01;;;;;;;;;;;;;;;26.31;nan;101178.34;5051902;28;20329;-84
2023/07/15 04:49:26;;;;;;;;;;;;;;;26.39;nan;101181.00;5053857;28;20525;-85
2023/07/15 04:51:52;;;;;;;;;;;;;;;26.47;nan;101187.50;5054277;28;20347;-85
2023/07/15 04:54:17;;;;;;;;;;;;;;;26.50;nan;101184.06;5055128;28;19920;-85
2023/07/15 04:56:43;;;;;;;;;;;;;;;26.57;nan;101183.47;5054465;28;20374;-84
2023/07/15 04:59:08;;;;;;;;;;;;;;;26.63;nan;101182.91;5052996;28;20027;-85
2023/07/15 05:01:33;;;;;;;;;;;;;;;26.71;nan;101176.47;5053504;28;19921;-85
2023/07/15 05:04:01;;;;;;;;;;;;;;;26.82;nan;101176.00;5053377;28;19943;-86
2023/07/15 05:06:27;;;;;;;;;;;;;;;26.90;nan;101175.84;5053408;28;19924;-85
2023/07/15 05:08:52;;;;;;;;;;;;;;;26.97;nan;101173.34;5051330;28;19967;-85
2023/07/15 05:11:19;;;;;;;;;;;;;;;27.06;nan;101178.72;5056059;28;19924;-85
2023/07/15 05:13:44;;;;;;;;;;;;;;;27.17;nan;101185.31;5050979;28;19921;-85
2023/07/15 05:16:09;;;;;;;;;;;;;;;27.31;nan;101171.16;5052426;28;19950;-86
2023/07/15 05:18:35;;;;;;;;;;;;;;;27.43;nan;101173.03;5055149;28;20279;-85
2023/07/15 05:21:00;;;;;;;;;;;;;;;27.50;nan;101176.00;5053909;28;19924;-85
2023/07/15 05:23:28;;;;;;;;;;;;;;;27.58;nan;101172.28;5052742;28;19924;-86
2023/07/15 05:25:55;;;;;;;;;;;;;;;27.66;nan;101176.88;5060268;28;19921;-86
2023/07/15 05:28:20;;;;;;;;;;;;;;;27.74;nan;101169.56;5056346;28;19920;-86
2023/07/15 05:30:45;;;;;;;;;;;;;;;27.82;nan;101174.09;5055099;28;20387;-86
2023/07/15 05:33:11;;;;;;;;;;;;;;;27.84;nan;101175.38;5057741;28;20303;-86
2023/07/15 05:35:36;;;;;;;;;;;;;;;27.86;nan;101167.56;5056853;28;19924;-85
2023/07/15 05:38:01;;;;;;;;;;;;;;;27.95;nan;101165.41;5052923;28;19925;-85
2023/07/15 05:40:27;;;;;;;;;;;;;;;28.09;nan;101164.16;5056060;28;19917;-85
2023/07/15 05:42:52;;;;;;;;;;;;;;;28.22;nan;101160.97;5054501;28;19917;-85
2023/07/15 05:45:17;;;;;;;;;;;;;;;28.34;nan;101162.00;5056620;28;19921;-85
2023/07/15 05:47:43;;;;;;;;;;;;;;;28.45;nan;101168.59;5053851;28;19916;-84
2023/07/15 05:50:08;;;;;;;;;;;;;;;28.51;nan;101167.94;5054975;28;19924;-85
2023/07/15 05:52:34;;;;;;;;;;;;;;;28.61;nan;101161.06;5057313;28;19920;-85
2023/07/15 05:54:59;;;;;;;;;;;;;;;28.63;nan;101166.22;5055312;28;19927;-84
2023/07/15 05:57:24;;;;;;;;;;;;;;;28.66;nan;101168.25;5058309;28;19966;-84
2023/07/15 05:59:50;;;;;;;;;;;;;;;28.75;nan;101160.59;5054029;28;19920;-84
2023/07/15 06:02:15;;;;;;;;;;;;;;;28.82;nan;101160.72;5056628;28;20415;-84
2023/07/15 06:04:40;;;;;;;;;;;;;;;28.92;nan;101162.97;5057419;28;20018;-84
2023/07/15 06:07:06;;;;;;;;;;;;;;;28.98;nan;101161.50;5070891;28;20015;-85
2023/07/15 06:09:31;;;;;;;;;;;;;;;29.10;nan;101164.13;5056743;28;19932;-84
2023/07/15 06:11:56;;;;;;;;;;;;;;;29.18;nan;101152.03;5054365;28;20397;-85
2023/07/15 06:14:22;;;;;;;;;;;;;;;29.30;nan;101153.84;5054824;28;19931;-84
2023/07/15 06:16:49;;;;;;;;;;;;;;;29.44;nan;101143.09;5051029;28;20282;-85
2023/07/15 06:19:14;;;;;;;;;;;;;;;29.60;nan;101144.94;5055285;28;20415;-84
2023/07/15 06:21:40;;;;;;;;;;;;;;;29.69;nan;101137.22;5058326;28;19920;-83
2023/07/15 06:24:05;;;;;;;;;;;;;;;29.81;nan;101144.53;5059279;28;20683;-84
2023/07/15 06:26:31;;;;;;;;;;;;;;;29.88;nan;101136.34;5057396;28;20522;-85
2023/07/15 06:28:56;;;;;;;;;;;;;;;29.94;nan;101132.91;5060591;28;19924;-84
2023/07/15 06:31:22;;;;;;;;;;;;;;;30.07;nan;101136.28;5057206;28;20415;-86
2023/07/15 06:33:48;;;;;;;;;;;;;;;30.18;nan;101134.50;5057724;28;19917;-84
2023/07/15 06:36:14;;;;;;;;;;;;;;;30.37;nan;101139.13;5061268;28;20454;-85
2023/07/15 06:38:39;;;;;;;;;;;;;;;30.53;nan;101136.19;5059790;28;19992;-84
2023/07/15 06:41:05;;;;;;;;;;;;;;;30.58;nan;101139.41;5056922;28;19920;-84
2023/07/15 06:43:30;;;;;;;;;;;;;;;30.76;nan;101138.88;5058945;28;19948;-85
2023/07/15 06:45:56;;;;;;;;;;;;;;;30.90;nan;101139.06;5056650;28;19920;-85
2023/07/15 06:48:21;;;;;;;;;;;;;;;30.98;nan;101132.41;5058515;28;19920;-85
2023/07/15 06:50:46;;;;;;;;;;;;;;;31.06;nan;101130.53;5057177;28;19920;-84
2023/07/15 06:53:12;;;;;;;;;;;;;;;31.18;nan;101124.75;5060661;28;19933;-83
2023/07/15 06:55:37;;;;;;;;;;;;;;;31.33;nan;101117.41;5068726;28;19917;-84
2023/07/15 06:58:03;;;;;;;;;;;;;;;31.52;nan;101123.53;5057421;28;20339;-84
2023/07/15 07:00:28;;;;;;;;;;;;;;;31.68;nan;101120.50;5055740;28;19916;-85
2023/07/15 07:02:54;;;;;;;;;;;;;;;31.80;nan;101117.47;5055390;28;19920;-83
2023/07/15 07:05:19;;;;;;;;;;;;;;;31.92;nan;101124.66;5056928;28;19921;-84
2023/07/15 07:07:45;;;;;;;;;;;;;;;32.09;nan;101124.00;5057462;28;19921;-84
2023/07/15 07:10:10;;;;;;;;;;;;;;;32.26;nan;101114.22;5055255;28;19917;-84
2023/07/15 07:12:35;;;;;;;;;;;;;;;32.37;nan;101115.09;5057364;28;20007;-84
2023/07/15 07:15:01;;;;;;;;;;;;;;;32.44;nan;101115.13;5055399;28;19924;-84
2023/07/15 07:17:27;;;;;;;;;;;;;;;32.53;nan;101114.78;5058699;28;19971;-85
2023/07/15 07:19:53;;;;;;;;;;;;;;;32.63;nan;101116.81;5062221;28;20012;-85
2023/07/15 07:22:18;;;;;;;;;;;;;;;32.67;nan;101108.50;5063233;28;20010;-84
2023/07/15 07:24:45;;;;;;;;;;;;;;;32.75;nan;101107.34;5063136;28;19921;-83
2023/07/15 07:27:11;;;;;;;;;;;;;;;32.94;nan;101104.28;5059291;28;19931;-83
2023/07/15 07:29:37;;;;;;;;;;;;;;;33.12;nan;101100.75;5065648;28;19924;-84
2023/07/15 07:32:03;;;;;;;;;;;;;;;33.20;nan;101099.56;5054979;28;19931;-84
2023/07/15 07:34:28;;;;;;;;;;;;;;;33.25;nan;101100.00;5062694;28;19959;-85
2023/07/15 07:36:54;;;;;;;;;;;;;;;33.34;nan;101091.28;5060015;28;19959;-84
2023/07/15 07:39:19;;;;;;;;;;;;;;;33.45;nan;101094.09;5057418;28;19929;-85
2023/07/15 07:41:44;;;;;;;;;;;;;;;33.57;nan;101085.34;5062275;28;19923;-85
2023/07/15 07:44:10;;;;;;;;;;;;;;;33.60;nan;101084.56;5055552;28;20019;-84
2023/07/15 07:46:35;;;;;;;;;;;;;;;33.72;nan;101080.56;5052652;28;20437;-82
2023/07/15 07:49:00;;;;;;;;;;;;;;;33.87;nan;101082.97;5058764;28;19925;-84
2023/07/15 07:51:26;;;;;;;;;;;;;;;34.03;nan;101081.75;5059149;28;19939;-84
2023/07/15 07:53:51;;;;;;;;;;;;;;;34.18;nan;101084.09;5057248;28;20435;-84
2023/07/15 07:56:16;;;;;;;;;;;;;;;34.29;nan;101089.63;5064251;28;20387;-83
2023/07/15 07:58:42;;;;;;;;;;;;;;;34.39;nan;101088.84;5056964;28;19926;-83
2023/07/15 08:01:07;;;;;;;;;;;;;;;34.48;nan;101083.66;5062394;28;19921;-83
2023/07/15 08:03:33;;;;;;;;;;;;;;;34.57;nan;101094.34;5057589;28;20113;-83
2023/07/15 08:05:59;;;;;;;;;;;;;;;34.66;nan;101088.34;5061840;28;19967;-84
2023/07/15 08:08:25;;;;;;;;;;;;;;;34.80;nan;101082.69;5058033;28;19920;-83
2023/07/15 08:10:50;;;;;;;;;;;;;;;34.85;nan;101076.75;5063073;28;20368;-84
2023/07/15 08:13:15;;;;;;;;;;;;;;;35.01;nan;101082.63;5057690;28;19924;-83
2023/07/15 08:15:40;;;;;;;;;;;;;;;35.12;nan;101074.97;5060187;28;19978;-84
2023/07/15 08:18:06;;;;;;;;;;;;;;;35.06;nan;101079.41;5058475;28;19974;-84
2023/07/15 08:20:32;;;;;;;;;;;;;;;35.06;nan;101079.41;5060005;28;19928;-85
2023/07/15 08:22:58;;;;;;;;;;;;;;;35.01;nan;101085.41;5054044;28;19925;-85
2023/07/15 08:25:23;;;;;;;;;;;;;;;35.03;nan;101076.63;5057818;28;19963;-84
2023/07/15 08:27:49;;;;;;;;;;;;;;;35.02;nan;101075.84;5059480;28;20273;-84
2023/07/15 08:30:14;;;;;;;;;;;;;;;35.13;nan;101079.34;5060058;28;20015;-86
2023/07/15 08:32:39;;;;;;;;;;;;;;;35.25;nan;101074.50;5058722;28;20015;-85
2023/07/15 08:35:05;;;;;;;;;;;;;;;35.33;nan;101074.00;5061200;28;19921;-84
2023/07/15 08:37:30;;;;;;;;;;;;;;;35.41;nan;101072.00;5062646;28;19916;-88
2023/07/15 08:39:56;;;;;;;;;;;;;;;35.55;nan;101066.31;5062752;28;20005;-86
2023/07/15 08:42:22;;;;;;;;;;;;;;;35.72;nan;101070.91;5061653;28;19967;-84
2023/07/15 08:44:48;;;;;;;;;;;;;;;35.81;nan;101066.88;5061953;28;19921;-86
2023/07/15 08:47:18;;;;;;;;;;;;;;;35.87;nan;101054.88;5065008;28;19920;-85
2023/07/15 08:49:43;;;;;;;;;;;;;;;35.99;nan;101050.78;5059289;28;19916;-86
2023/07/15 08:52:09;;;;;;;;;;;;;;;36.15;nan;101056.56;5057876;28;19966;-87
2023/07/15 08:54:34;;;;;;;;;;;;;;;36.29;nan;101055.63;5063693;28;19920;-86
2023/07/15 08:57:00;;;;;;;;;;;;;;;36.38;nan;101044.75;5060945;28;19920;-85
2023/07/15 08:59:26;;;;;;;;;;;;;;;36.42;nan;101053.09;5060608;28;20591;-86
2023/07/15 09:01:51;;;;;;;;;;;;;;;36.46;nan;101051.06;5058799;28;19934;-85
2023/07/15 09:04:16;;;;;;;;;;;;;;;36.56;nan;101050.13;5059334;28;19928;-86
2023/07/15 09:06:42;;;;;;;;;;;;;;;36.75;nan;101046.66;5058459;28;20018;-86
2023/07/15 09:09:07;;;;;;;;;;;;;;;36.81;nan;101047.81;5059717;28;20443;-87
2023/07/15 09:11:40;;;;;;;;;;;;;;;36.84;nan;101057.34;5062296;28;20365;-85
2023/07/15 09:14:12;;;;;;;;;;;;;;;36.88;nan;101053.28;5067802;28;19959;-84
2023/07/15 09:16:38;;;;;;;;;;;;;;;37.07;nan;101051.00;5056241;28;19921;-85
2023/07/15 09:19:04;;;;;;;;;;;;;;;37.26;nan;101047.53;5057298;28;19920;-87
2023/07/15 09:21:30;;;;;;;;;;;;;;;37.46;nan;101042.81;5056357;28;20008;-86
2023/07/15 09:23:59;;;;;;;;;;;;;;;37.63;nan;101034.53;5055962;28;20022;-85
2023/07/15 09:26:25;;;;;;;;;;;;;;;37.69;nan;101032.81;5063389;28;19916;-86
2023/07/15 09:28:50;;;;;;;;;;;;;;;37.76;nan;101027.13;5061580;28;19924;-85
2023/07/15 09:31:25;;;;;;;;;;;;;;;37.86;nan;101023.31;5058558;28;20431;-88
2023/07/15 09:33:51;;;;;;;;;;;;;;;38.00;nan;101028.66;5056046;28;19948;-87
2023/07/15 09:36:28;;;;;;;;;;;;;;;38.12;nan;101027.22;5060137;28;20336;-86
2023/07/15 09:38:53;;;;;;;;;;;;;;;38.25;nan;101030.97;5062413;28;19929;-84
2023/07/15 09:41:19;;;;;;;;;;;;;;;38.42;nan;101033.81;5056237;28;19916;-86
2023/07/15 09:43:46;;;;;;;;;;;;;;;38.51;nan;101017.22;5059064;28;19974;-85
2023/07/15 09:46:12;;;;;;;;;;;;;;;38.57;nan;101035.09;5057124;28;19916;-85
2023/07/15 09:48:38;;;;;;;;;;;;;;;38.59;nan;101025.03;5057426;28;19935;-88
2023/07/15 09:51:03;;;;;;;;;;;;;;;38.63;nan;101027.75;5057173;28;19939;-87
2023/07/15 09:53:30;;;;;;;;;;;;;;;38.83;nan;101030.53;5059562;28;19921;-86
2023/07/15 09:55:56;;;;;;;;;;;;;;;38.83;nan;101024.94;5058038;28;19924;-86
2023/07/15 09:58:22;;;;;;;;;;;;;;;39.03;nan;101022.84;5059939;28;19920;-86
2023/07/15 10:01:11;;;;;;;;;;;;;;;38.97;nan;101019.00;5062487;28;19921;-86
2023/07/15 10:03:47;;;;;;;;;;;;;;;38.92;nan;101025.88;5050898;28;19994;-87
2023/07/15 10:06:12;;;;;;;;;;;;;;;38.89;nan;101009.16;5059399;28;20377;-85
2023/07/15 10:08:39;;;;;;;;;;;;;;;38.91;nan;101001.13;5057652;28;19917;-87
2023/07/15 10:11:05;;;;;;;;;;;;;;;38.94;nan;101001.03;5055884;28;19921;-85
2023/07/15 10:13:30;;;;;;;;;;;;;;;39.09;nan;100995.91;5065169;28;19920;-87
2023/07/15 10:15:56;;;;;;;;;;;;;;;39.18;nan;100987.66;5058771;28;19917;-86
2023/07/15 10:18:22;;;;;;;;;;;;;;;39.33;nan;100998.53;5060382;28;19921;-84
2023/07/15 10:20:57;;;;;;;;;;;;;;;39.38;nan;100998.75;5057080;28;19924;-85
2023/07/15 10:23:26;;;;;;;;;;;;;;;39.47;nan;101003.72;5055573;28;20007;-86
2023/07/15 10:26:05;;;;;;;;;;;;;;;39.60;nan;100987.78;5060177;28;19966;-85
2023/07/15 10:28:34;;;;;;;;;;;;;;;39.69;nan;100996.38;5064029;28;19952;-86
2023/07/15 10:31:07;;;;;;;;;;;;;;;39.79;nan;100994.47;5060453;28;19920;-86
2023/07/15 10:33:33;;;;;;;;;;;;;;;39.93;nan;100998.91;5055884;28;19923;-87
2023/07/15 10:35:59;;;;;;;;;;;;;;;40.01;nan;101000.28;5054633;28;19916;-86
2023/07/15 10:38:28;;;;;;;;;;;;;;;40.03;nan;101001.41;5062928;28;20633;-85
2023/07/15 10:40:57;;;;;;;;;;;;;;;40.02;nan;101004.66;5062407;28;19930;-86
2023/07/15 10:43:35;;;;;;;;;;;;;;;40.00;nan;100999.50;5056934;28;20388;-86
2023/07/15 10:46:10;;;;;;;;;;;;;;;40.08;nan;100997.28;5059229;28;19928;-84
2023/07/15 10:48:36;;;;;;;;;;;;;;;40.20;nan;100990.91;5052539;28;19932;-84
2023/07/15 10:51:08;;;;;;;;;;;;;;;40.34;nan;100993.28;5057463;28;19925;-85
2023/07/15 10:53:34;;;;;;;;;;;;;;;40.39;nan;100989.94;5060198;28;19921;-86
2023/07/15 10:56:03;;;;;;;;;;;;;;;40.44;nan;100997.03;5061253;28;19951;-86
2023/07/15 10:58:30;;;;;;;;;;;;;;;40.39;nan;100989.16;5060380;28;19928;-85
2023/07/15 11:01:00;;;;;;;;;;;;;;;40.28;nan;100995.09;5056307;28;19924;-87
2023/07/15 11:03:26;;;;;;;;;;;;;;;40.22;nan;100999.69;5056221;28;19920;-87
2023/07/15 11:05:53;;;;;;;;;;;;;;;40.28;nan;100997.88;5059952;28;19916;-87
2023/07/15 11:08:19;;;;;;;;;;;;;;;40.40;nan;100999.19;5058907;28;19921;-89
2023/07/15 11:10:45;;;;;;;;;;;;;;;40.52;nan;100997.59;5058325;28;19932;-86
2023/07/15 11:13:11;;;;;;;;;;;;;;;40.64;nan;100980.75;5074776;28;19962;-87
2023/07/15 11:15:36;;;;;;;;;;;;;;;40.68;nan;100983.44;5058826;28;20373;-86
2023/07/15 11:18:01;;;;;;;;;;;;;;;40.70;nan;100978.94;5059324;28;20380;-85
2023/07/15 11:20:27;;;;;;;;;;;;;;;40.77;nan;100983.56;5060416;28;19924;-85
2023/07/15 11:22:52;;;;;;;;;;;;;;;40.86;nan;100977.28;5052681;28;20356;-86
2023/07/15 11:25:17;;;;;;;;;;;;;;;40.96;nan;100988.16;5049385;28;20644;-86
2023/07/15 11:27:43;;;;;;;;;;;;;;;41.00;nan;100977.59;5051676;28;19974;-87
2023/07/15 11:30:09;;;;;;;;;;;;;;;41.12;nan;100972.38;5049629;28;19956;-87
2023/07/15 11:32:34;;;;;;;;;;;;;;;41.30;nan;100973.38;5056161;28;19925;-85
2023/07/15 11:35:09;;;;;;;;;;;;;;;41.39;nan;100978.28;5050658;28;20559;-87
2023/07/15 11:37:41;;;;;;;;;;;;;;;41.41;nan;100967.38;5051157;28;19970;-86
2023/07/15 11:40:06;;;;;;;;;;;;;;;41.34;nan;100967.63;5051431;28;19934;-86
2023/07/15 11:42:34;;;;;;;;;;;;;;;41.37;nan;100966.72;5050806;28;20324;-86
2023/07/15 11:45:00;;;;;;;;;;;;;;;41.46;nan;100978.03;5050965;28;19920;-86
2023/07/15 11:47:25;;;;;;;;;;;;;;;41.61;nan;100981.91;5055139;28;20458;-87
2023/07/15 11:49:51;;;;;;;;;;;;;;;41.66;nan;100977.00;5056377;28;20320;-87
2023/07/15 11:52:21;;;;;;;;;;;;;;;41.70;nan;100975.59;5052493;28;19936;-86
2023/07/15 11:54:46;;;;;;;;;;;;;;;41.77;nan;100969.72;5056900;28;19928;-87
2023/07/15 11:57:11;;;;;;;;;;;;;;;41.77;nan;100978.16;5056846;28;20280;-87
2023/07/15 11:59:37;;;;;;;;;;;;;;;41.78;nan;100968.47;5054843;28;19928;-86
2023/07/15 12:02:03;;;;;;;;;;;;;;;41.86;nan;100966.19;5051324;28;20027;-86
2023/07/15 12:04:31;;;;;;;;;;;;;;;41.87;nan;100962.13;5060007;28;19926;-85
2023/07/15 12:06:57;;;;;;;;;;;;;;;41.81;nan;100972.38;5053490;28;20007;-87
2023/07/15 12:09:22;;;;;;;;;;;;;;;41.84;nan;100972.28;5052138;28;19927;-86
2023/07/15 12:11:48;;;;;;;;;;;;;;;41.86;nan;100966.97;5056048;28;19924;-86
2023/07/15 12:14:15;;;;;;;;;;;;;;;41.96;nan;100970.59;5054362;28;19974;-85
2023/07/15 12:16:41;;;;;;;;;;;;;;;41.91;nan;100976.84;5053247;28;19920;-87
2023/07/15 12:19:10;;;;;;;;;;;;;;;41.85;nan;100967.44;5054309;28;19931;-86
2023/07/15 12:21:36;;;;;;;;;;;;;;;41.94;nan;100973.09;5049826;28;20139;-85
2023/07/15 12:24:01;;;;;;;;;;;;;;;41.98;nan;100965.31;5052188;28;19925;-85
2023/07/15 12:26:27;;;;;;;;;;;;;;;42.08;nan;100952.91;5051714;28;19921;-85
2023/07/15 12:28:52;;;;;;;;;;;;;;;42.19;nan;100947.66;5051237;28;19920;-86
2023/07/15 12:31:17;;;;;;;;;;;;;;;42.35;nan;100952.22;5051838;28;19971;-87
2023/07/15 12:33:43;;;;;;;;;;;;;;;42.46;nan;100946.16;5052610;28;19970;-87
2023/07/15 12:36:11;;;;;;;;;;;;;;;42.62;nan;100943.13;5055633;28;20295;-87
2023/07/15 12:38:37;;;;;;;;;;;;;;;42.69;nan;100950.50;5051204;28;19924;-86
2023/07/15 12:41:03;;;;;;;;;;;;;;;42.80;nan;100939.56;5067627;28;20428;-85
2023/07/15 12:43:29;;;;;;;;;;;;;;;43.03;nan;100929.75;5049937;28;19927;-86
2023/07/15 12:45:54;;;;;;;;;;;;;;;43.17;nan;100923.50;5053692;28;19921;-86
2023/07/15 12:48:20;;;;;;;;;;;;;;;43.35;nan;100926.34;5050160;28;19928;-86
2023/07/15 12:50:46;;;;;;;;;;;;;;;43.51;nan;100936.53;5051899;28;19981;-86
2023/07/15 12:53:11;;;;;;;;;;;;;;;43.56;nan;100932.28;5052690;28;19928;-85